createdAt,value
2018-09-01T00:04:36.259Z,101822.00
2018-09-01T00:10:40.217Z,101823.00
2018-09-01T00:16:43.848Z,101821.00
2018-09-01T00:22:47.303Z,101817.00
2018-09-01T00:28:51.135Z,101819.00
2018-09-01T00:34:54.805Z,101820.00
2018-09-01T00:40:58.258Z,101823.00
2018-09-01T00:47:02.153Z,101832.00
2018-09-01T00:53:05.950Z,101831.00
2018-09-01T00:59:09.394Z,101830.00
2018-09-01T01:05:13.450Z,101837.00
2018-09-01T01:11:17.448Z,101836.00
2018-09-01T01:17:21.459Z,101832.00
2018-09-01T01:23:25.016Z,101841.00
2018-09-01T01:29:28.802Z,101842.00
2018-09-01T01:35:32.747Z,101846.00
2018-09-01T01:41:37.862Z,101840.00
2018-09-01T01:47:41.927Z,101847.00
2018-09-01T01:53:45.843Z,101841.00
2018-09-01T01:59:49.264Z,101845.00
2018-09-01T02:05:52.781Z,101839.00
2018-09-01T02:11:56.452Z,101843.00
2018-09-01T02:17:59.992Z,101848.00
2018-09-01T02:24:03.865Z,101848.00
2018-09-01T02:30:07.775Z,101847.00
2018-09-01T02:36:11.834Z,101828.00
2018-09-01T02:42:15.303Z,101838.00
2018-09-01T02:48:20.035Z,101842.00
2018-09-01T02:54:24.184Z,101850.00
2018-09-01T03:00:33.263Z,101855.00
2018-09-01T03:06:56.582Z,101853.00
2018-09-01T03:13:00.660Z,101857.00
2018-09-01T03:19:10.914Z,101857.00
2018-09-01T03:25:14.363Z,101858.00
2018-09-01T03:31:17.999Z,101864.00
2018-09-01T03:37:21.716Z,101857.00
2018-09-01T03:43:25.690Z,101871.00
2018-09-01T03:49:30.112Z,101864.00
2018-09-01T03:55:33.937Z,101861.00
2018-09-01T04:01:37.538Z,101872.00
2018-09-01T04:07:41.253Z,101872.00
2018-09-01T04:13:45.157Z,101861.00
2018-09-01T04:19:49.890Z,101870.00
2018-09-01T04:25:53.661Z,101875.00
2018-09-01T04:31:57.899Z,101883.00
2018-09-01T04:38:01.495Z,101883.00
2018-09-01T04:44:05.343Z,101890.00
2018-09-01T04:50:09.124Z,101902.00
2018-09-01T04:56:12.546Z,101908.00
2018-09-01T05:02:16.214Z,101908.00
2018-09-01T05:08:20.314Z,101910.00
2018-09-01T05:14:23.945Z,101921.00
2018-09-01T05:20:28.588Z,101913.00
2018-09-01T05:26:33.451Z,101927.00
2018-09-01T05:32:37.208Z,101942.00
2018-09-01T05:38:40.662Z,101954.00
2018-09-01T05:44:44.675Z,101950.00
2018-09-01T05:50:51.432Z,101947.00
2018-09-01T05:56:55.135Z,101965.00
2018-09-01T06:02:59.698Z,101967.00
2018-09-01T06:09:04.578Z,101968.00
2018-09-01T06:15:09.278Z,101980.00
2018-09-01T06:21:13.761Z,101986.00
2018-09-01T06:27:22.945Z,101992.00
2018-09-01T06:33:27.139Z,101987.00
2018-09-01T06:39:30.619Z,101984.00
2018-09-01T06:45:34.213Z,101992.00
2018-09-01T06:51:37.751Z,101991.00
2018-09-01T06:57:41.192Z,101990.00
2018-09-01T07:03:44.945Z,102000.00
2018-09-01T07:09:49.465Z,102002.00
2018-09-01T07:15:53.294Z,102004.00
2018-09-01T07:21:56.925Z,102003.00
2018-09-01T07:28:00.730Z,102007.00
2018-09-01T07:34:04.814Z,102009.00
2018-09-01T07:40:15.664Z,102009.00
2018-09-01T07:46:19.798Z,102020.00
2018-09-01T07:52:24.181Z,102020.00
2018-09-01T07:58:28.930Z,102022.00
2018-09-01T08:04:32.537Z,102037.00
2018-09-01T08:10:36.250Z,102036.00
2018-09-01T08:16:39.920Z,102037.00
2018-09-01T08:22:43.712Z,102027.00
2018-09-01T08:28:47.490Z,102034.00
2018-09-01T08:34:51.301Z,102033.00
2018-09-01T08:40:55.104Z,102038.00
2018-09-01T08:46:58.659Z,102040.00
2018-09-01T08:53:03.186Z,102047.00
2018-09-01T08:59:06.931Z,102048.00
2018-09-01T09:05:10.571Z,102058.00
2018-09-01T09:11:14.305Z,102055.00
2018-09-01T09:17:18.923Z,102047.00
2018-09-01T09:23:22.614Z,102051.00
2018-09-01T09:29:26.145Z,102045.00
2018-09-01T09:35:29.898Z,102049.00
2018-09-01T09:41:34.020Z,102058.00
2018-09-01T09:47:38.486Z,102068.00
2018-09-01T09:53:42.214Z,102063.00
2018-09-01T09:59:46.334Z,102056.00
2018-09-01T10:05:50.175Z,102053.00
2018-09-01T10:11:53.865Z,102054.00
2018-09-01T10:17:57.625Z,102057.00
2018-09-01T10:24:01.457Z,102044.00
2018-09-01T10:30:05.123Z,102056.00
2018-09-01T10:36:09.218Z,102063.00
2018-09-01T10:42:13.163Z,102057.00
2018-09-01T10:48:16.907Z,102057.00
2018-09-01T10:54:21.044Z,102060.00
2018-09-01T11:00:24.775Z,102051.00
2018-09-01T11:06:28.784Z,102054.00
2018-09-01T11:12:32.423Z,102050.00
2018-09-01T11:18:36.134Z,102052.00
2018-09-01T11:24:39.893Z,102045.00
2018-09-01T11:30:43.935Z,102030.00
2018-09-01T11:36:47.887Z,102035.00
2018-09-01T11:42:51.400Z,102022.00
2018-09-01T11:48:55.108Z,102027.00
2018-09-01T11:54:58.656Z,102018.00
2018-09-01T12:01:02.321Z,102029.00
2018-09-01T12:07:06.373Z,102038.00
2018-09-01T12:13:10.028Z,102032.00
2018-09-01T12:19:16.176Z,102023.00
2018-09-01T12:25:19.734Z,102021.00
2018-09-01T12:31:23.885Z,102020.00
2018-09-01T12:37:28.135Z,102001.00
2018-09-01T12:43:32.225Z,101992.00
2018-09-01T12:49:36.235Z,101999.00
2018-09-01T12:55:44.583Z,102000.00
2018-09-01T13:01:48.456Z,101990.00
2018-09-01T13:07:53.129Z,101988.00
2018-09-01T13:13:56.797Z,101986.00
2018-09-01T13:20:00.430Z,101975.00
2018-09-01T13:26:06.056Z,101985.00
2018-09-01T13:32:09.873Z,101988.00
2018-09-01T13:38:14.406Z,101985.00
2018-09-01T13:44:18.608Z,101990.00
2018-09-01T13:50:22.154Z,101980.00
2018-09-01T13:56:25.899Z,101986.00
2018-09-01T14:02:32.502Z,101995.00
2018-09-01T14:08:36.137Z,101986.00
2018-09-01T14:14:40.024Z,101985.00
2018-09-01T14:20:44.036Z,101992.00
2018-09-01T14:26:47.518Z,101984.00
2018-09-01T14:32:51.303Z,101976.00
2018-09-01T14:38:54.738Z,101976.00
2018-09-01T14:44:58.738Z,101981.00
2018-09-01T14:51:02.794Z,101971.00
2018-09-01T14:57:06.463Z,101971.00
2018-09-01T15:03:10.058Z,101966.00
2018-09-01T15:09:14.347Z,101963.00
2018-09-01T15:15:17.862Z,101965.00
2018-09-01T15:21:22.510Z,101960.00
2018-09-01T15:27:26.022Z,101972.00
2018-09-01T15:33:30.718Z,101976.00
2018-09-01T15:39:34.742Z,101956.00
2018-09-01T15:45:38.551Z,101969.00
2018-09-01T15:51:42.165Z,101957.00
2018-09-01T15:57:45.897Z,101949.00
2018-09-01T16:03:49.608Z,101954.00
2018-09-01T16:09:53.106Z,101962.00
2018-09-01T16:15:56.690Z,101948.00
2018-09-01T16:22:00.594Z,101957.00
2018-09-01T16:28:04.510Z,101961.00
2018-09-01T16:34:08.313Z,101957.00
2018-09-01T16:40:12.177Z,101967.00
2018-09-01T16:46:15.949Z,101971.00
2018-09-01T16:52:19.839Z,101976.00
2018-09-01T16:58:23.485Z,101971.00
2018-09-01T17:04:27.108Z,101972.00
2018-09-01T17:10:30.503Z,101982.00
2018-09-01T17:16:34.355Z,101986.00
2018-09-01T17:22:37.862Z,101982.00
2018-09-01T17:28:48.799Z,101982.00
2018-09-01T17:34:52.679Z,101984.00
2018-09-01T17:40:56.341Z,101994.00
2018-09-01T17:47:00.804Z,101983.00
2018-09-01T17:53:04.979Z,101980.00
2018-09-01T17:59:08.708Z,101987.00
2018-09-01T18:05:13.056Z,101989.00
2018-09-01T18:11:17.134Z,101994.00
2018-09-01T18:17:21.095Z,101996.00
2018-09-01T18:23:31.656Z,101995.00
2018-09-01T18:29:37.564Z,102004.00
2018-09-01T18:35:40.952Z,102004.00
2018-09-01T18:41:44.751Z,102013.00
2018-09-01T18:47:48.217Z,102007.00
2018-09-01T18:53:52.867Z,102010.00
2018-09-01T18:59:56.285Z,102012.00
2018-09-01T19:06:00.295Z,102015.00
2018-09-01T19:12:04.732Z,102010.00
2018-09-01T19:18:14.980Z,102020.00
2018-09-01T19:24:18.515Z,102029.00
2018-09-01T19:30:22.232Z,102038.00
2018-09-01T19:36:25.667Z,102038.00
2018-09-01T19:42:29.207Z,102029.00
2018-09-01T19:48:32.880Z,102026.00
2018-09-01T19:54:36.322Z,102030.00
2018-09-01T20:00:40.071Z,102022.00
2018-09-01T20:06:44.081Z,102025.00
2018-09-01T20:12:47.809Z,102027.00
2018-09-01T20:18:51.614Z,102032.00
2018-09-01T20:24:55.233Z,102036.00
2018-09-01T20:30:59.448Z,102031.00
2018-09-01T20:37:02.833Z,102046.00
2018-09-01T20:43:06.402Z,102043.00
2018-09-01T20:49:09.834Z,102051.00
2018-09-01T20:55:13.248Z,102051.00
2018-09-01T21:01:16.743Z,102048.00
2018-09-01T21:07:20.378Z,102044.00
2018-09-01T21:13:24.611Z,102060.00
2018-09-01T21:19:28.063Z,102052.00
2018-09-01T21:25:31.533Z,102048.00
2018-09-01T21:31:40.106Z,102050.00
2018-09-01T21:37:44.487Z,102043.00
2018-09-01T21:43:49.647Z,102042.00
2018-09-01T21:49:53.207Z,102049.00
2018-09-01T21:55:58.121Z,102044.00
2018-09-01T22:02:07.325Z,102048.00
2018-09-01T22:08:10.962Z,102041.00
2018-09-01T22:14:14.697Z,102049.00
2018-09-01T22:20:19.212Z,102038.00
2018-09-01T22:26:25.133Z,102045.00
2018-09-01T22:32:28.957Z,102047.00
2018-09-01T22:38:32.530Z,102033.00
2018-09-01T22:44:36.929Z,102039.00
2018-09-01T22:50:40.550Z,102034.00
2018-09-01T22:56:44.256Z,102030.00
2018-09-01T23:02:48.180Z,102033.00
2018-09-01T23:08:52.364Z,102033.00
2018-09-01T23:14:55.986Z,102033.00
2018-09-01T23:20:59.810Z,102026.00
2018-09-01T23:27:04.338Z,102029.00
2018-09-01T23:33:08.197Z,102036.00
2018-09-01T23:39:12.124Z,102031.00
2018-09-01T23:45:15.658Z,102044.00
2018-09-01T23:51:19.268Z,102040.00
2018-09-01T23:57:23.778Z,102028.00
